sensor_id;sensor_type;location;lat;lon;timestamp;pressure;altitude;pressure_sealevel;temperature;humidity
21638;BME280;10980;49.596;6.142;2023-02-26T00:00:26;98162.34;;;-0.16;100.00
21638;BME280;10980;49.596;6.142;2023-02-26T00:03:58;98152.22;;;-0.22;100.00
21638;BME280;10980;49.596;6.142;2023-02-26T00:07:23;98157.69;;;-0.26;100.00
21638;BME280;10980;49.596;6.142;2023-02-26T00:10:46;98160.31;;;-0.26;100.00
21638;BME280;10980;49.596;6.142;2023-02-26T00:14:28;98158.22;;;-0.37;100.00
21638;BME280;10980;49.596;6.142;2023-02-26T00:18:14;98160.25;;;-0.42;100.00
21638;BME280;10980;49.596;6.142;2023-02-26T00:21:39;98150.00;;;-0.47;100.00
21638;BME280;10980;49.596;6.142;2023-02-26T00:25:04;98159.47;;;-0.62;100.00
21638;BME280;10980;49.596;6.142;2023-02-26T00:28:26;98158.25;;;-0.72;100.00
21638;BME280;10980;49.596;6.142;2023-02-26T00:31:55;98161.91;;;-0.76;100.00
21638;BME280;10980;49.596;6.142;2023-02-26T00:35:21;98158.69;;;-0.64;100.00
21638;BME280;10980;49.596;6.142;2023-02-26T00:42:23;98158.47;;;-0.76;100.00
21638;BME280;10980;49.596;6.142;2023-02-26T00:46:01;98162.53;;;-0.88;100.00
21638;BME280;10980;49.596;6.142;2023-02-26T00:50:15;98167.34;;;-0.98;100.00
21638;BME280;10980;49.596;6.142;2023-02-26T00:54:22;98171.47;;;-1.11;100.00
21638;BME280;10980;49.596;6.142;2023-02-26T00:57:45;98173.84;;;-1.06;100.00
21638;BME280;10980;49.596;6.142;2023-02-26T01:01:08;98174.50;;;-1.20;100.00
21638;BME280;10980;49.596;6.142;2023-02-26T01:04:35;98178.63;;;-1.71;100.00
21638;BME280;10980;49.596;6.142;2023-02-26T01:08:41;98183.53;;;-2.02;100.00
21638;BME280;10980;49.596;6.142;2023-02-26T01:12:15;98175.59;;;-1.81;100.00
21638;BME280;10980;49.596;6.142;2023-02-26T01:15:41;98178.84;;;-1.75;100.00
21638;BME280;10980;49.596;6.142;2023-02-26T01:19:17;98179.09;;;-1.82;100.00
21638;BME280;10980;49.596;6.142;2023-02-26T01:23:25;98171.75;;;-0.64;100.00
21638;BME280;10980;49.596;6.142;2023-02-26T01:26:48;98179.88;;;-0.35;100.00
21638;BME280;10980;49.596;6.142;2023-02-26T01:30:12;98182.97;;;-0.27;100.00
21638;BME280;10980;49.596;6.142;2023-02-26T01:33:50;98176.53;;;-0.04;100.00
21638;BME280;10980;49.596;6.142;2023-02-26T01:41:32;98181.09;;;-0.08;100.00
21638;BME280;10980;49.596;6.142;2023-02-26T01:45:15;98181.59;;;-0.01;100.00
21638;BME280;10980;49.596;6.142;2023-02-26T01:48:57;98177.09;;;0.03;100.00
21638;BME280;10980;49.596;6.142;2023-02-26T01:53:23;98177.75;;;0.06;100.00
21638;BME280;10980;49.596;6.142;2023-02-26T01:56:51;98177.72;;;-0.10;100.00
21638;BME280;10980;49.596;6.142;2023-02-26T02:00:18;98177.72;;;-0.10;100.00
21638;BME280;10980;49.596;6.142;2023-02-26T02:03:47;98171.47;;;-0.07;100.00
21638;BME280;10980;49.596;6.142;2023-02-26T02:07:10;98168.19;;;-0.11;100.00
21638;BME280;10980;49.596;6.142;2023-02-26T02:10:32;98173.16;;;-0.06;100.00
21638;BME280;10980;49.596;6.142;2023-02-26T02:19:00;98181.59;;;-1.05;100.00
21638;BME280;10980;49.596;6.142;2023-02-26T02:22:45;98173.72;;;-1.03;100.00
21638;BME280;10980;49.596;6.142;2023-02-26T02:26:45;98179.53;;;-1.15;100.00
21638;BME280;10980;49.596;6.142;2023-02-26T02:31:04;98186.78;;;-1.22;100.00
21638;BME280;10980;49.596;6.142;2023-02-26T02:34:59;98179.34;;;-1.30;100.00
21638;BME280;10980;49.596;6.142;2023-02-26T02:42:00;98197.28;;;-1.24;100.00
21638;BME280;10980;49.596;6.142;2023-02-26T02:46:02;98191.88;;;-1.19;100.00
21638;BME280;10980;49.596;6.142;2023-02-26T02:49:51;98184.44;;;-1.09;100.00
21638;BME280;10980;49.596;6.142;2023-02-26T02:53:27;98198.91;;;-1.40;100.00
21638;BME280;10980;49.596;6.142;2023-02-26T02:57:25;98193.78;;;-1.05;100.00
21638;BME280;10980;49.596;6.142;2023-02-26T03:00:56;98194.31;;;-1.35;100.00
21638;BME280;10980;49.596;6.142;2023-02-26T03:04:42;98203.97;;;-0.99;100.00
21638;BME280;10980;49.596;6.142;2023-02-26T03:08:13;98204.88;;;-1.00;100.00
21638;BME280;10980;49.596;6.142;2023-02-26T03:11:41;98201.34;;;-0.99;100.00
21638;BME280;10980;49.596;6.142;2023-02-26T03:15:14;98196.41;;;-1.05;100.00
21638;BME280;10980;49.596;6.142;2023-02-26T03:19:00;98194.34;;;-1.16;100.00
21638;BME280;10980;49.596;6.142;2023-02-26T03:26:53;98197.47;;;-1.09;100.00
21638;BME280;10980;49.596;6.142;2023-02-26T03:30:35;98202.09;;;-1.14;100.00
21638;BME280;10980;49.596;6.142;2023-02-26T03:38:00;98231.97;;;-1.22;100.00
21638;BME280;10980;49.596;6.142;2023-02-26T03:41:57;98244.09;;;-1.21;100.00
21638;BME280;10980;49.596;6.142;2023-02-26T03:45:33;98243.53;;;-1.27;100.00
21638;BME280;10980;49.596;6.142;2023-02-26T03:49:03;98243.75;;;-1.13;100.00
21638;BME280;10980;49.596;6.142;2023-02-26T03:52:33;98240.25;;;-0.95;100.00
21638;BME280;10980;49.596;6.142;2023-02-26T03:56:29;98241.53;;;-0.84;100.00
21638;BME280;10980;49.596;6.142;2023-02-26T04:00:13;98247.03;;;-0.54;100.00
21638;BME280;10980;49.596;6.142;2023-02-26T04:03:54;98245.00;;;-0.67;100.00
21638;BME280;10980;49.596;6.142;2023-02-26T04:07:20;98255.19;;;-0.79;100.00
21638;BME280;10980;49.596;6.142;2023-02-26T04:11:02;98245.84;;;-1.02;100.00
21638;BME280;10980;49.596;6.142;2023-02-26T04:14:55;98241.97;;;-1.12;100.00
21638;BME280;10980;49.596;6.142;2023-02-26T04:18:26;98254.94;;;-1.11;100.00
21638;BME280;10980;49.596;6.142;2023-02-26T04:21:49;98250.44;;;-1.45;100.00
21638;BME280;10980;49.596;6.142;2023-02-26T04:25:16;98249.28;;;-1.58;100.00
21638;BME280;10980;49.596;6.142;2023-02-26T04:28:41;98255.50;;;-1.61;100.00
21638;BME280;10980;49.596;6.142;2023-02-26T04:32:03;98258.28;;;-1.65;100.00
21638;BME280;10980;49.596;6.142;2023-02-26T04:35:28;98263.13;;;-1.37;100.00
21638;BME280;10980;49.596;6.142;2023-02-26T04:38:52;98259.59;;;-1.36;100.00
21638;BME280;10980;49.596;6.142;2023-02-26T04:42:40;98262.56;;;-1.44;100.00
21638;BME280;10980;49.596;6.142;2023-02-26T04:46:02;98266.63;;;-1.38;100.00
21638;BME280;10980;49.596;6.142;2023-02-26T04:49:39;98264.63;;;-1.71;100.00
21638;BME280;10980;49.596;6.142;2023-02-26T04:53:04;98273.00;;;-1.44;100.00
21638;BME280;10980;49.596;6.142;2023-02-26T04:56:28;98281.59;;;-2.01;100.00
21638;BME280;10980;49.596;6.142;2023-02-26T04:59:52;98281.09;;;-1.70;100.00
21638;BME280;10980;49.596;6.142;2023-02-26T05:03:31;98290.13;;;-1.77;100.00
21638;BME280;10980;49.596;6.142;2023-02-26T05:06:53;98292.22;;;-2.06;100.00
21638;BME280;10980;49.596;6.142;2023-02-26T05:10:17;98296.63;;;-1.88;100.00
21638;BME280;10980;49.596;6.142;2023-02-26T05:13:44;98294.94;;;-1.89;100.00
21638;BME280;10980;49.596;6.142;2023-02-26T05:17:17;98296.75;;;-1.70;100.00
21638;BME280;10980;49.596;6.142;2023-02-26T05:20:39;98309.78;;;-1.70;100.00
21638;BME280;10980;49.596;6.142;2023-02-26T05:24:09;98315.19;;;-1.75;100.00
21638;BME280;10980;49.596;6.142;2023-02-26T05:27:31;98314.25;;;-1.94;100.00
21638;BME280;10980;49.596;6.142;2023-02-26T05:30:59;98319.69;;;-1.99;100.00
21638;BME280;10980;49.596;6.142;2023-02-26T05:34:23;98311.84;;;-1.58;100.00
21638;BME280;10980;49.596;6.142;2023-02-26T05:37:45;98320.84;;;-1.65;100.00
21638;BME280;10980;49.596;6.142;2023-02-26T05:41:07;98331.03;;;-1.59;100.00
21638;BME280;10980;49.596;6.142;2023-02-26T05:44:29;98326.97;;;-1.46;100.00
21638;BME280;10980;49.596;6.142;2023-02-26T05:47:51;98335.69;;;-1.47;100.00
21638;BME280;10980;49.596;6.142;2023-02-26T05:51:15;98338.16;;;-1.44;100.00
21638;BME280;10980;49.596;6.142;2023-02-26T05:54:38;98343.53;;;-1.47;100.00
21638;BME280;10980;49.596;6.142;2023-02-26T05:58:10;98354.59;;;-1.42;100.00
21638;BME280;10980;49.596;6.142;2023-02-26T06:01:35;98356.34;;;-1.42;100.00
21638;BME280;10980;49.596;6.142;2023-02-26T06:04:58;98361.63;;;-1.44;100.00
21638;BME280;10980;49.596;6.142;2023-02-26T06:08:19;98362.88;;;-1.53;100.00
21638;BME280;10980;49.596;6.142;2023-02-26T06:11:42;98370.50;;;-1.48;100.00
21638;BME280;10980;49.596;6.142;2023-02-26T06:15:11;98364.84;;;-1.58;100.00
21638;BME280;10980;49.596;6.142;2023-02-26T06:18:33;98370.88;;;-1.57;100.00
21638;BME280;10980;49.596;6.142;2023-02-26T06:21:55;98365.81;;;-1.60;100.00
21638;BME280;10980;49.596;6.142;2023-02-26T06:25:17;98368.34;;;-1.59;100.00
21638;BME280;10980;49.596;6.142;2023-02-26T06:28:39;98374.13;;;-1.52;100.00
21638;BME280;10980;49.596;6.142;2023-02-26T06:32:00;98373.28;;;-1.53;100.00
21638;BME280;10980;49.596;6.142;2023-02-26T06:35:22;98377.94;;;-1.59;100.00
21638;BME280;10980;49.596;6.142;2023-02-26T06:38:45;98383.16;;;-1.59;100.00
21638;BME280;10980;49.596;6.142;2023-02-26T06:42:12;98388.22;;;-1.56;100.00
21638;BME280;10980;49.596;6.142;2023-02-26T06:45:35;98394.00;;;-1.50;100.00
21638;BME280;10980;49.596;6.142;2023-02-26T06:48:58;98388.50;;;-1.62;100.00
21638;BME280;10980;49.596;6.142;2023-02-26T06:52:54;98395.25;;;-1.58;100.00
21638;BME280;10980;49.596;6.142;2023-02-26T06:56:16;98405.19;;;-1.46;100.00
21638;BME280;10980;49.596;6.142;2023-02-26T06:59:38;98417.88;;;-1.38;100.00
21638;BME280;10980;49.596;6.142;2023-02-26T07:02:59;98425.69;;;-1.18;100.00
21638;BME280;10980;49.596;6.142;2023-02-26T07:06:21;98420.91;;;-1.08;100.00
21638;BME280;10980;49.596;6.142;2023-02-26T07:10:06;98423.13;;;-0.99;100.00
21638;BME280;10980;49.596;6.142;2023-02-26T07:13:30;98442.94;;;-0.95;100.00
21638;BME280;10980;49.596;6.142;2023-02-26T07:17:00;98436.03;;;-0.96;100.00
21638;BME280;10980;49.596;6.142;2023-02-26T07:20:22;98449.13;;;-0.98;100.00
21638;BME280;10980;49.596;6.142;2023-02-26T07:23:45;98443.00;;;-0.97;100.00
21638;BME280;10980;49.596;6.142;2023-02-26T07:27:14;98449.69;;;-0.91;100.00
21638;BME280;10980;49.596;6.142;2023-02-26T07:30:38;98456.38;;;-0.84;100.00
21638;BME280;10980;49.596;6.142;2023-02-26T07:34:03;98440.84;;;-0.68;100.00
21638;BME280;10980;49.596;6.142;2023-02-26T07:37:27;98449.91;;;-0.56;100.00
21638;BME280;10980;49.596;6.142;2023-02-26T07:40:54;98446.56;;;0.14;100.00
21638;BME280;10980;49.596;6.142;2023-02-26T07:44:27;98463.09;;;-0.59;100.00
21638;BME280;10980;49.596;6.142;2023-02-26T07:47:51;98472.41;;;-0.54;100.00
21638;BME280;10980;49.596;6.142;2023-02-26T07:51:22;98474.44;;;-0.61;100.00
21638;BME280;10980;49.596;6.142;2023-02-26T07:54:44;98482.22;;;-0.40;100.00
21638;BME280;10980;49.596;6.142;2023-02-26T07:58:07;98477.16;;;-0.24;100.00
21638;BME280;10980;49.596;6.142;2023-02-26T08:01:29;98461.53;;;0.98;100.00
21638;BME280;10980;49.596;6.142;2023-02-26T08:04:51;98487.22;;;1.25;100.00
21638;BME280;10980;49.596;6.142;2023-02-26T08:08:20;98464.88;;;1.51;100.00
21638;BME280;10980;49.596;6.142;2023-02-26T08:11:42;98477.66;;;1.57;100.00
21638;BME280;10980;49.596;6.142;2023-02-26T08:15:11;98486.78;;;0.82;100.00
21638;BME280;10980;49.596;6.142;2023-02-26T08:18:35;98481.47;;;0.83;100.00
21638;BME280;10980;49.596;6.142;2023-02-26T08:21:56;98492.16;;;0.96;100.00
21638;BME280;10980;49.596;6.142;2023-02-26T08:25:18;98514.31;;;0.89;100.00
21638;BME280;10980;49.596;6.142;2023-02-26T08:28:47;98496.78;;;1.08;100.00
21638;BME280;10980;49.596;6.142;2023-02-26T08:32:09;98487.06;;;1.43;100.00
21638;BME280;10980;49.596;6.142;2023-02-26T08:35:33;98487.38;;;1.70;100.00
21638;BME280;10980;49.596;6.142;2023-02-26T08:38:55;98515.78;;;1.78;100.00
21638;BME280;10980;49.596;6.142;2023-02-26T08:42:25;98504.91;;;1.37;100.00
21638;BME280;10980;49.596;6.142;2023-02-26T08:45:56;98500.03;;;1.62;100.00
21638;BME280;10980;49.596;6.142;2023-02-26T08:49:21;98506.66;;;1.69;100.00
21638;BME280;10980;49.596;6.142;2023-02-26T08:52:43;98507.88;;;1.79;100.00
21638;BME280;10980;49.596;6.142;2023-02-26T08:56:17;98515.81;;;1.45;100.00
21638;BME280;10980;49.596;6.142;2023-02-26T08:59:39;98516.81;;;2.07;100.00
21638;BME280;10980;49.596;6.142;2023-02-26T09:03:01;98521.91;;;1.94;100.00
21638;BME280;10980;49.596;6.142;2023-02-26T09:06:32;98535.13;;;2.08;100.00
21638;BME280;10980;49.596;6.142;2023-02-26T09:10:00;98553.84;;;1.85;100.00
21638;BME280;10980;49.596;6.142;2023-02-26T09:13:23;98549.72;;;1.81;100.00
21638;BME280;10980;49.596;6.142;2023-02-26T09:16:47;98558.22;;;1.69;100.00
21638;BME280;10980;49.596;6.142;2023-02-26T09:20:13;98543.88;;;1.92;100.00
21638;BME280;10980;49.596;6.142;2023-02-26T09:23:37;98556.78;;;2.28;100.00
21638;BME280;10980;49.596;6.142;2023-02-26T09:27:00;98551.22;;;3.10;100.00
21638;BME280;10980;49.596;6.142;2023-02-26T09:30:25;98550.16;;;3.28;100.00
21638;BME280;10980;49.596;6.142;2023-02-26T09:33:47;98556.00;;;3.62;98.49
21638;BME280;10980;49.596;6.142;2023-02-26T09:37:11;98556.94;;;4.17;94.04
21638;BME280;10980;49.596;6.142;2023-02-26T09:40:57;98555.38;;;4.42;89.31
21638;BME280;10980;49.596;6.142;2023-02-26T09:44:23;98582.47;;;4.30;87.64
21638;BME280;10980;49.596;6.142;2023-02-26T09:47:52;98565.69;;;4.04;85.83
21638;BME280;10980;49.596;6.142;2023-02-26T09:56:32;98599.09;;;3.15;92.51
21638;BME280;10980;49.596;6.142;2023-02-26T09:59:58;98592.34;;;3.25;90.81
21638;BME280;10980;49.596;6.142;2023-02-26T10:08:09;98611.31;;;3.60;89.04
21638;BME280;10980;49.596;6.142;2023-02-26T10:12:03;98610.44;;;2.54;88.56
21638;BME280;10980;49.596;6.142;2023-02-26T10:15:39;98605.09;;;2.71;89.23
21638;BME280;10980;49.596;6.142;2023-02-26T10:19:29;98608.72;;;2.53;88.45
21638;BME280;10980;49.596;6.142;2023-02-26T10:23:24;98612.44;;;2.33;90.60
21638;BME280;10980;49.596;6.142;2023-02-26T10:27:04;98641.25;;;2.66;91.04
21638;BME280;10980;49.596;6.142;2023-02-26T10:30:50;98625.97;;;3.34;87.49
21638;BME280;10980;49.596;6.142;2023-02-26T10:38:24;98629.81;;;3.58;79.99
21638;BME280;10980;49.596;6.142;2023-02-26T10:41:50;98615.94;;;3.11;82.02
21638;BME280;10980;49.596;6.142;2023-02-26T10:53:03;98642.16;;;2.96;84.62
21638;BME280;10980;49.596;6.142;2023-02-26T10:56:33;98620.81;;;3.03;83.77
21638;BME280;10980;49.596;6.142;2023-02-26T10:59:56;98638.03;;;3.22;82.58
21638;BME280;10980;49.596;6.142;2023-02-26T11:03:41;98633.59;;;3.83;79.60
21638;BME280;10980;49.596;6.142;2023-02-26T11:07:21;98654.84;;;3.94;75.02
21638;BME280;10980;49.596;6.142;2023-02-26T11:14:24;98634.91;;;3.32;74.50
21638;BME280;10980;49.596;6.142;2023-02-26T11:18:00;98637.09;;;3.53;72.14
21638;BME280;10980;49.596;6.142;2023-02-26T11:21:40;98619.03;;;3.92;71.43
21638;BME280;10980;49.596;6.142;2023-02-26T11:25:16;98641.31;;;3.56;70.04
21638;BME280;10980;49.596;6.142;2023-02-26T11:28:54;98629.53;;;3.33;68.38
21638;BME280;10980;49.596;6.142;2023-02-26T11:32:35;98634.13;;;3.59;68.76
21638;BME280;10980;49.596;6.142;2023-02-26T11:36:28;98633.78;;;3.80;68.81
21638;BME280;10980;49.596;6.142;2023-02-26T11:40:03;98630.00;;;3.70;68.97
21638;BME280;10980;49.596;6.142;2023-02-26T11:43:47;98630.13;;;3.38;69.22
21638;BME280;10980;49.596;6.142;2023-02-26T11:47:28;98628.47;;;3.21;70.91
21638;BME280;10980;49.596;6.142;2023-02-26T11:51:00;98620.19;;;2.97;71.50
21638;BME280;10980;49.596;6.142;2023-02-26T11:54:38;98638.69;;;2.96;72.44
21638;BME280;10980;49.596;6.142;2023-02-26T11:58:34;98659.19;;;3.05;73.25
21638;BME280;10980;49.596;6.142;2023-02-26T12:02:11;98625.22;;;3.32;72.91
21638;BME280;10980;49.596;6.142;2023-02-26T12:05:38;98667.41;;;3.75;71.46
21638;BME280;10980;49.596;6.142;2023-02-26T12:09:00;98637.88;;;3.70;70.89
21638;BME280;10980;49.596;6.142;2023-02-26T12:16:42;98635.88;;;3.15;70.36
21638;BME280;10980;49.596;6.142;2023-02-26T12:24:14;98647.66;;;3.08;72.47
21638;BME280;10980;49.596;6.142;2023-02-26T12:28:05;98629.75;;;3.88;71.25
21638;BME280;10980;49.596;6.142;2023-02-26T12:31:43;98637.19;;;4.10;67.24
21638;BME280;10980;49.596;6.142;2023-02-26T12:39:29;98629.53;;;4.63;64.83
21638;BME280;10980;49.596;6.142;2023-02-26T12:54:46;98617.13;;;4.51;64.80
21638;BME280;10980;49.596;6.142;2023-02-26T13:03:03;98635.50;;;4.09;67.59
21638;BME280;10980;49.596;6.142;2023-02-26T13:07:19;98645.38;;;4.20;69.59
21638;BME280;10980;49.596;6.142;2023-02-26T13:11:39;98646.75;;;4.40;69.88
21638;BME280;10980;49.596;6.142;2023-02-26T13:23:14;98643.53;;;4.63;65.28
21638;BME280;10980;49.596;6.142;2023-02-26T13:26:39;98637.78;;;4.57;64.02
21638;BME280;10980;49.596;6.142;2023-02-26T13:30:31;98633.94;;;4.89;64.17
21638;BME280;10980;49.596;6.142;2023-02-26T13:34:01;98643.81;;;5.27;61.72
21638;BME280;10980;49.596;6.142;2023-02-26T13:37:39;98659.06;;;4.54;60.71
21638;BME280;10980;49.596;6.142;2023-02-26T13:41:21;98653.06;;;4.52;61.96
21638;BME280;10980;49.596;6.142;2023-02-26T13:49:00;98653.25;;;4.34;63.68
21638;BME280;10980;49.596;6.142;2023-02-26T13:52:34;98649.94;;;4.31;64.67
21638;BME280;10980;49.596;6.142;2023-02-26T13:56:41;98645.81;;;4.27;62.50
21638;BME280;10980;49.596;6.142;2023-02-26T14:00:27;98650.50;;;3.93;62.15
21638;BME280;10980;49.596;6.142;2023-02-26T14:08:26;98657.06;;;3.86;60.84
21638;BME280;10980;49.596;6.142;2023-02-26T14:16:08;98665.34;;;3.94;59.88
21638;BME280;10980;49.596;6.142;2023-02-26T14:19:36;98656.00;;;4.33;61.31
21638;BME280;10980;49.596;6.142;2023-02-26T14:23:18;98653.41;;;4.45;64.22
21638;BME280;10980;49.596;6.142;2023-02-26T14:26:50;98648.41;;;4.69;64.28
21638;BME280;10980;49.596;6.142;2023-02-26T14:30:33;98662.47;;;4.27;63.43
21638;BME280;10980;49.596;6.142;2023-02-26T14:34:15;98667.06;;;4.24;64.62
21638;BME280;10980;49.596;6.142;2023-02-26T14:41:37;98670.75;;;3.63;66.84
21638;BME280;10980;49.596;6.142;2023-02-26T14:45:26;98666.91;;;3.68;66.53
21638;BME280;10980;49.596;6.142;2023-02-26T14:49:03;98673.66;;;3.58;64.67
21638;BME280;10980;49.596;6.142;2023-02-26T14:57:04;98724.88;;;3.51;63.44
21638;BME280;10980;49.596;6.142;2023-02-26T15:13:17;98682.75;;;3.37;71.15
21638;BME280;10980;49.596;6.142;2023-02-26T15:21:07;98716.78;;;3.24;75.20
21638;BME280;10980;49.596;6.142;2023-02-26T15:24:31;98706.94;;;3.12;77.59
21638;BME280;10980;49.596;6.142;2023-02-26T15:27:53;98737.28;;;2.70;78.38
21638;BME280;10980;49.596;6.142;2023-02-26T15:31:20;98732.41;;;2.47;79.29
21638;BME280;10980;49.596;6.142;2023-02-26T15:34:53;98723.03;;;2.58;79.57
21638;BME280;10980;49.596;6.142;2023-02-26T15:38:15;98727.84;;;2.66;78.53
21638;BME280;10980;49.596;6.142;2023-02-26T15:41:46;98733.56;;;2.74;76.80
21638;BME280;10980;49.596;6.142;2023-02-26T15:45:23;98726.13;;;2.98;75.59
21638;BME280;10980;49.596;6.142;2023-02-26T15:48:47;98723.31;;;3.17;74.05
21638;BME280;10980;49.596;6.142;2023-02-26T15:52:21;98719.84;;;3.16;72.99
21638;BME280;10980;49.596;6.142;2023-02-26T15:55:52;98746.59;;;3.23;72.65
21638;BME280;10980;49.596;6.142;2023-02-26T15:59:31;98730.44;;;3.15;66.76
21638;BME280;10980;49.596;6.142;2023-02-26T16:02:55;98735.16;;;3.24;64.94
21638;BME280;10980;49.596;6.142;2023-02-26T16:06:46;98742.38;;;3.05;64.17
21638;BME280;10980;49.596;6.142;2023-02-26T16:10:39;98731.19;;;3.17;64.54
21638;BME280;10980;49.596;6.142;2023-02-26T16:14:04;98735.25;;;3.07;64.54
21638;BME280;10980;49.596;6.142;2023-02-26T16:17:36;98728.31;;;2.74;63.85
21638;BME280;10980;49.596;6.142;2023-02-26T16:21:02;98731.53;;;2.79;64.18
21638;BME280;10980;49.596;6.142;2023-02-26T16:24:28;98739.09;;;2.85;64.43
21638;BME280;10980;49.596;6.142;2023-02-26T16:28:09;98741.72;;;2.85;61.68
21638;BME280;10980;49.596;6.142;2023-02-26T16:31:54;98739.41;;;2.79;61.23
21638;BME280;10980;49.596;6.142;2023-02-26T16:35:32;98751.47;;;2.66;62.35
21638;BME280;10980;49.596;6.142;2023-02-26T16:39:29;98755.56;;;2.56;64.40
21638;BME280;10980;49.596;6.142;2023-02-26T16:43:03;98759.38;;;2.33;65.63
21638;BME280;10980;49.596;6.142;2023-02-26T16:50:02;98790.72;;;1.84;68.67
21638;BME280;10980;49.596;6.142;2023-02-26T16:53:34;98788.50;;;1.94;69.71
21638;BME280;10980;49.596;6.142;2023-02-26T16:57:18;98785.47;;;2.01;70.07
21638;BME280;10980;49.596;6.142;2023-02-26T17:00:45;98791.50;;;1.86;71.60
21638;BME280;10980;49.596;6.142;2023-02-26T17:04:26;98794.88;;;1.88;70.66
21638;BME280;10980;49.596;6.142;2023-02-26T17:08:00;98820.47;;;1.47;72.16
21638;BME280;10980;49.596;6.142;2023-02-26T17:11:34;98824.00;;;1.46;73.13
21638;BME280;10980;49.596;6.142;2023-02-26T17:15:00;98836.22;;;1.28;75.12
21638;BME280;10980;49.596;6.142;2023-02-26T17:18:22;98832.53;;;1.51;75.73
21638;BME280;10980;49.596;6.142;2023-02-26T17:22:03;98832.59;;;1.49;75.82
21638;BME280;10980;49.596;6.142;2023-02-26T17:25:40;98846.25;;;1.56;75.98
21638;BME280;10980;49.596;6.142;2023-02-26T17:29:02;98843.03;;;1.68;75.00
21638;BME280;10980;49.596;6.142;2023-02-26T17:32:30;98844.81;;;1.68;74.34
21638;BME280;10980;49.596;6.142;2023-02-26T17:35:59;98848.09;;;1.54;77.46
21638;BME280;10980;49.596;6.142;2023-02-26T17:39:24;98865.19;;;1.80;76.30
21638;BME280;10980;49.596;6.142;2023-02-26T17:42:54;98856.78;;;1.91;75.58
21638;BME280;10980;49.596;6.142;2023-02-26T17:46:15;98861.41;;;1.86;76.24
21638;BME280;10980;49.596;6.142;2023-02-26T17:49:46;98866.13;;;1.79;76.00
21638;BME280;10980;49.596;6.142;2023-02-26T17:53:14;98867.63;;;1.66;77.05
21638;BME280;10980;49.596;6.142;2023-02-26T18:01:48;98883.50;;;1.44;80.05
21638;BME280;10980;49.596;6.142;2023-02-26T18:05:14;98889.44;;;1.29;81.90
21638;BME280;10980;49.596;6.142;2023-02-26T18:08:38;98889.75;;;1.23;82.36
21638;BME280;10980;49.596;6.142;2023-02-26T18:12:01;98883.88;;;1.36;83.30
21638;BME280;10980;49.596;6.142;2023-02-26T18:15:25;98872.75;;;1.50;83.12
21638;BME280;10980;49.596;6.142;2023-02-26T18:19:01;98886.78;;;1.49;83.48
21638;BME280;10980;49.596;6.142;2023-02-26T18:22:24;98884.47;;;1.60;81.94
21638;BME280;10980;49.596;6.142;2023-02-26T18:25:53;98890.56;;;1.61;81.44
21638;BME280;10980;49.596;6.142;2023-02-26T18:29:17;98890.50;;;1.62;81.08
21638;BME280;10980;49.596;6.142;2023-02-26T18:32:45;98880.09;;;1.61;80.82
21638;BME280;10980;49.596;6.142;2023-02-26T18:36:29;98883.09;;;1.34;81.97
21638;BME280;10980;49.596;6.142;2023-02-26T18:39:55;98884.13;;;1.30;84.08
21638;BME280;10980;49.596;6.142;2023-02-26T18:43:23;98885.06;;;1.10;86.10
21638;BME280;10980;49.596;6.142;2023-02-26T18:51:28;98885.78;;;0.54;92.94
21638;BME280;10980;49.596;6.142;2023-02-26T18:55:05;98875.75;;;0.44;94.47
21638;BME280;10980;49.596;6.142;2023-02-26T18:58:27;98883.59;;;0.44;96.49
21638;BME280;10980;49.596;6.142;2023-02-26T19:01:49;98888.72;;;0.67;97.25
21638;BME280;10980;49.596;6.142;2023-02-26T19:05:13;98887.66;;;0.71;96.43
21638;BME280;10980;49.596;6.142;2023-02-26T19:08:35;98891.13;;;0.72;96.62
21638;BME280;10980;49.596;6.142;2023-02-26T19:11:57;98887.72;;;0.90;95.75
21638;BME280;10980;49.596;6.142;2023-02-26T19:15:24;98890.81;;;0.98;95.61
21638;BME280;10980;49.596;6.142;2023-02-26T19:23:26;98900.09;;;0.66;97.97
21638;BME280;10980;49.596;6.142;2023-02-26T19:26:49;98903.69;;;0.64;98.93
21638;BME280;10980;49.596;6.142;2023-02-26T19:30:21;98894.25;;;0.59;100.00
21638;BME280;10980;49.596;6.142;2023-02-26T19:33:43;98901.53;;;0.53;100.00
21638;BME280;10980;49.596;6.142;2023-02-26T19:37:07;98908.66;;;0.70;100.00
21638;BME280;10980;49.596;6.142;2023-02-26T19:40:32;98918.16;;;0.93;100.00
21638;BME280;10980;49.596;6.142;2023-02-26T19:43:54;98916.25;;;1.15;100.00
21638;BME280;10980;49.596;6.142;2023-02-26T19:47:16;98915.78;;;1.26;99.56
21638;BME280;10980;49.596;6.142;2023-02-26T19:50:41;98910.53;;;1.26;99.17
21638;BME280;10980;49.596;6.142;2023-02-26T19:54:07;98922.44;;;1.33;99.20
21638;BME280;10980;49.596;6.142;2023-02-26T19:57:29;98928.09;;;1.24;99.72
21638;BME280;10980;49.596;6.142;2023-02-26T20:01:01;98930.34;;;1.12;100.00
21638;BME280;10980;49.596;6.142;2023-02-26T20:04:31;98923.56;;;1.08;100.00
21638;BME280;10980;49.596;6.142;2023-02-26T20:07:53;98936.03;;;1.02;100.00
21638;BME280;10980;49.596;6.142;2023-02-26T20:11:16;98936.88;;;1.02;100.00
21638;BME280;10980;49.596;6.142;2023-02-26T20:14:41;98931.78;;;0.99;100.00
21638;BME280;10980;49.596;6.142;2023-02-26T20:18:04;98931.03;;;0.97;100.00
21638;BME280;10980;49.596;6.142;2023-02-26T20:21:43;98932.56;;;1.01;100.00
21638;BME280;10980;49.596;6.142;2023-02-26T20:25:05;98942.13;;;1.02;100.00
21638;BME280;10980;49.596;6.142;2023-02-26T20:28:32;98949.06;;;1.03;100.00
21638;BME280;10980;49.596;6.142;2023-02-26T20:31:55;98944.47;;;0.89;100.00
21638;BME280;10980;49.596;6.142;2023-02-26T20:35:19;98969.25;;;0.61;100.00
21638;BME280;10980;49.596;6.142;2023-02-26T20:38:46;98964.78;;;0.63;100.00
21638;BME280;10980;49.596;6.142;2023-02-26T20:42:08;98959.03;;;0.54;100.00
21638;BME280;10980;49.596;6.142;2023-02-26T20:45:30;98976.28;;;0.58;100.00
21638;BME280;10980;49.596;6.142;2023-02-26T20:48:53;98973.38;;;0.44;100.00
21638;BME280;10980;49.596;6.142;2023-02-26T20:52:15;98974.31;;;0.43;100.00
21638;BME280;10980;49.596;6.142;2023-02-26T20:55:37;98971.19;;;0.55;100.00
21638;BME280;10980;49.596;6.142;2023-02-26T20:58:59;98976.47;;;0.54;100.00
21638;BME280;10980;49.596;6.142;2023-02-26T21:02:22;98969.13;;;0.42;100.00